createdAt,value
2022-08-03T00:01:46.741Z,17.17
2022-08-03T00:04:14.873Z,14.73
2022-08-03T00:06:43.171Z,16.23
2022-08-03T00:09:13.145Z,16.77
2022-08-03T00:11:41.219Z,18.90
2022-08-03T00:14:10.115Z,14.40
2022-08-03T00:16:38.752Z,17.77
2022-08-03T00:19:06.921Z,16.07
2022-08-03T00:21:34.942Z,15.80
2022-08-03T00:24:03.049Z,16.33
2022-08-03T00:26:32.748Z,13.27
2022-08-03T00:29:00.781Z,13.13
2022-08-03T00:31:44.967Z,22.47
2022-08-03T00:34:17.034Z,11.93
2022-08-03T00:36:58.114Z,13.07
2022-08-03T00:39:26.295Z,11.27
2022-08-03T00:41:55.738Z,14.30
2022-08-03T00:44:23.980Z,13.53
2022-08-03T00:46:52.817Z,15.13
2022-08-03T00:49:20.905Z,17.57
2022-08-03T00:51:49.380Z,14.37
2022-08-03T00:54:17.768Z,17.40
2022-08-03T00:56:59.486Z,13.63
2022-08-03T00:59:32.031Z,19.13
2022-08-03T01:02:00.066Z,15.60
2022-08-03T01:04:29.499Z,20.57
2022-08-03T01:07:10.995Z,16.80
2022-08-03T01:09:47.601Z,16.27
2022-08-03T01:12:25.939Z,15.30
2022-08-03T01:15:01.488Z,20.47
2022-08-03T01:17:35.707Z,18.47
2022-08-03T01:20:08.699Z,16.40
2022-08-03T01:22:51.420Z,17.23
2022-08-03T01:25:36.555Z,12.10
2022-08-03T01:28:23.720Z,16.10
2022-08-03T01:30:56.008Z,17.60
2022-08-03T01:33:27.728Z,19.10
2022-08-03T01:36:01.755Z,17.03
2022-08-03T01:38:33.741Z,11.03
2022-08-03T01:41:08.689Z,17.27
2022-08-03T01:44:27.817Z,18.43
2022-08-03T01:46:31.403Z,16.60
2022-08-03T01:49:01.357Z,14.30
2022-08-03T01:51:57.749Z,15.60
2022-08-03T01:54:29.524Z,14.83
2022-08-03T01:57:00.508Z,10.93
2022-08-03T01:59:30.613Z,16.30
2022-08-03T02:02:29.016Z,11.13
2022-08-03T02:04:51.904Z,14.57
2022-08-03T02:07:21.283Z,13.63
2022-08-03T02:09:54.373Z,16.23
2022-08-03T02:12:25.117Z,11.70
2022-08-03T02:14:54.987Z,14.60
2022-08-03T02:17:39.618Z,15.23
2022-08-03T02:20:12.418Z,12.10
2022-08-03T02:22:42.240Z,16.13
2022-08-03T02:25:11.530Z,23.47
2022-08-03T02:27:44.227Z,14.33
2022-08-03T02:30:14.690Z,13.77
2022-08-03T02:32:50.064Z,15.53
2022-08-03T02:35:20.501Z,13.80
2022-08-03T02:37:53.215Z,17.23
2022-08-03T02:40:24.438Z,20.13
2022-08-03T02:42:56.902Z,19.27
2022-08-03T02:45:28.079Z,20.17
2022-08-03T02:48:02.327Z,18.80
2022-08-03T02:50:36.900Z,21.80
2022-08-03T02:53:05.937Z,19.80
2022-08-03T02:55:42.947Z,20.37
2022-08-03T02:58:14.573Z,17.47
2022-08-03T03:00:45.357Z,19.33
2022-08-03T03:03:16.422Z,19.50
2022-08-03T03:05:54.448Z,20.17
2022-08-03T03:08:28.202Z,19.27
2022-08-03T03:10:58.374Z,18.53
2022-08-03T03:13:28.988Z,21.77
2022-08-03T03:15:58.629Z,19.00
2022-08-03T03:18:29.822Z,22.93
2022-08-03T03:20:59.235Z,28.50
2022-08-03T03:23:29.330Z,23.67
2022-08-03T03:25:59.225Z,17.67
2022-08-03T03:28:28.001Z,23.97
2022-08-03T03:30:56.371Z,23.93
2022-08-03T03:33:27.207Z,28.73
2022-08-03T03:35:59.773Z,25.20
2022-08-03T03:38:28.520Z,26.70
2022-08-03T03:40:56.821Z,24.80
2022-08-03T03:43:25.949Z,25.03
2022-08-03T03:45:56.113Z,21.27
2022-08-03T03:48:25.996Z,20.20
2022-08-03T03:50:54.509Z,13.43
2022-08-03T03:53:24.377Z,15.00
2022-08-03T03:55:59.372Z,16.93
2022-08-03T03:58:32.026Z,15.37
2022-08-03T04:01:00.591Z,16.13
2022-08-03T04:03:29.017Z,13.07
2022-08-03T04:06:15.894Z,16.00
2022-08-03T04:09:03.508Z,14.20
2022-08-03T04:11:39.683Z,14.20
2022-08-03T04:14:13.545Z,12.57
2022-08-03T04:16:46.531Z,12.47
2022-08-03T04:19:23.127Z,13.07
2022-08-03T04:21:57.280Z,11.37
2022-08-03T04:24:31.844Z,8.77
2022-08-03T04:27:02.216Z,11.00
2022-08-03T04:29:32.218Z,15.10
2022-08-03T04:32:03.183Z,33.40
2022-08-03T04:34:32.175Z,20.43
2022-08-03T04:37:02.625Z,20.33
2022-08-03T04:39:34.017Z,18.03
2022-08-03T04:42:08.797Z,21.17
2022-08-03T04:44:39.793Z,24.60
2022-08-03T04:47:08.221Z,23.97
2022-08-03T04:49:37.807Z,15.17
2022-08-03T04:52:10.387Z,21.83
2022-08-03T04:54:48.675Z,17.60
2022-08-03T04:57:23.017Z,16.80
2022-08-03T05:00:01.350Z,24.23
2022-08-03T05:02:31.406Z,20.27
2022-08-03T05:04:59.483Z,22.27
2022-08-03T05:07:34.057Z,22.37
2022-08-03T05:10:15.040Z,30.43
2022-08-03T05:12:45.460Z,26.70
2022-08-03T05:15:14.241Z,24.37
2022-08-03T05:17:42.914Z,33.83
2022-08-03T05:20:12.373Z,27.67
2022-08-03T05:22:40.995Z,23.37
2022-08-03T05:25:16.937Z,23.20
2022-08-03T05:27:47.636Z,19.33
2022-08-03T05:30:31.430Z,23.60
2022-08-03T05:33:03.475Z,18.23
2022-08-03T05:36:00.477Z,24.00
2022-08-03T05:38:24.156Z,23.67
2022-08-03T05:41:23.526Z,16.07
2022-08-03T05:43:50.969Z,19.30
2022-08-03T05:46:19.050Z,21.10
2022-08-03T05:48:47.035Z,22.90
2022-08-03T05:51:15.436Z,22.50
2022-08-03T05:53:44.041Z,21.50
2022-08-03T05:56:16.238Z,26.83
2022-08-03T05:58:47.344Z,20.00
2022-08-03T06:01:16.115Z,23.73
2022-08-03T06:03:44.273Z,25.37
2022-08-03T06:06:12.744Z,23.60
2022-08-03T06:08:40.937Z,19.73
2022-08-03T06:11:09.877Z,21.87
2022-08-03T06:13:39.969Z,23.40
2022-08-03T06:16:11.253Z,17.90
2022-08-03T06:18:41.107Z,18.70
2022-08-03T06:21:14.622Z,14.67
2022-08-03T06:23:53.946Z,25.23
2022-08-03T06:26:25.447Z,18.17
2022-08-03T06:28:56.003Z,16.60
2022-08-03T06:31:32.680Z,17.40
2022-08-03T06:34:33.936Z,22.10
2022-08-03T06:36:52.457Z,17.20
2022-08-03T06:39:23.365Z,22.83
2022-08-03T06:41:52.393Z,18.20
2022-08-03T06:44:22.451Z,20.20
2022-08-03T06:46:51.271Z,13.93
2022-08-03T06:49:19.589Z,21.67
2022-08-03T06:52:05.934Z,13.30
2022-08-03T06:54:36.115Z,16.57
2022-08-03T06:57:05.176Z,20.70
2022-08-03T07:00:09.554Z,20.80
2022-08-03T07:02:22.902Z,15.57
2022-08-03T07:04:50.960Z,18.57
2022-08-03T07:07:19.527Z,15.07
2022-08-03T07:09:56.652Z,15.90
2022-08-03T07:12:28.283Z,11.77
2022-08-03T07:15:02.129Z,16.43
2022-08-03T07:17:33.389Z,12.40
2022-08-03T07:20:03.530Z,12.03
2022-08-03T07:22:31.646Z,13.33
2022-08-03T07:25:00.337Z,12.03
2022-08-03T07:27:29.846Z,10.53
2022-08-03T07:30:00.063Z,13.47
2022-08-03T07:32:28.561Z,17.50
2022-08-03T07:35:00.485Z,16.87
2022-08-03T07:37:30.209Z,14.23
2022-08-03T07:39:59.010Z,13.40
2022-08-03T07:42:27.077Z,13.57
2022-08-03T07:44:55.255Z,19.23
2022-08-03T07:47:34.774Z,14.40
2022-08-03T07:50:04.422Z,14.70
2022-08-03T07:52:51.923Z,14.17
2022-08-03T07:55:21.533Z,14.93
2022-08-03T07:58:00.298Z,14.17
2022-08-03T08:00:28.660Z,8.43
2022-08-03T08:02:58.125Z,12.03
2022-08-03T08:05:26.540Z,12.40
2022-08-03T08:07:54.541Z,14.50
2022-08-03T08:10:22.809Z,13.53
2022-08-03T08:12:52.637Z,10.13
2022-08-03T08:15:20.809Z,9.93
2022-08-03T08:17:51.088Z,8.07
2022-08-03T08:20:30.530Z,11.33
2022-08-03T08:23:01.615Z,14.40
2022-08-03T08:25:32.273Z,9.60
2022-08-03T08:28:29.507Z,12.40
2022-08-03T08:30:51.576Z,14.30
2022-08-03T08:33:23.118Z,14.73
2022-08-03T08:35:54.621Z,11.47
2022-08-03T08:38:23.266Z,9.50
2022-08-03T08:40:51.855Z,11.27
2022-08-03T08:43:20.393Z,11.13
2022-08-03T08:45:50.859Z,10.30
2022-08-03T08:48:25.855Z,11.57
2022-08-03T08:50:56.836Z,11.43
2022-08-03T08:53:28.952Z,11.30
2022-08-03T08:56:01.601Z,13.53
2022-08-03T08:58:32.263Z,11.93
2022-08-03T09:01:00.666Z,10.40
2022-08-03T09:03:30.442Z,9.67
2022-08-03T09:06:02.510Z,8.10
2022-08-03T09:08:31.803Z,14.03
2022-08-03T09:10:59.859Z,11.70
2022-08-03T09:13:29.364Z,11.50
2022-08-03T09:16:12.092Z,11.57
2022-08-03T09:18:40.966Z,12.97
2022-08-03T09:21:31.160Z,10.00
2022-08-03T09:24:04.257Z,7.60
2022-08-03T09:26:35.099Z,10.07
2022-08-03T09:29:09.614Z,11.50
2022-08-03T09:31:43.549Z,10.37
2022-08-03T09:34:13.989Z,10.30
2022-08-03T09:36:45.718Z,13.83
2022-08-03T09:39:15.733Z,11.20
2022-08-03T09:41:47.454Z,11.33
2022-08-03T09:44:24.939Z,12.73
2022-08-03T09:46:55.953Z,8.17
2022-08-03T09:49:25.335Z,11.03
2022-08-03T09:52:33.646Z,9.43
2022-08-03T09:54:44.564Z,10.03
2022-08-03T09:57:23.841Z,13.57
2022-08-03T10:00:02.954Z,9.43
2022-08-03T10:02:33.304Z,9.53
2022-08-03T10:05:01.554Z,8.83
2022-08-03T10:07:31.115Z,10.57
2022-08-03T10:10:29.080Z,7.73
2022-08-03T10:12:49.530Z,9.47
2022-08-03T10:16:22.880Z,10.17
2022-08-03T10:18:07.420Z,12.07
2022-08-03T10:20:39.467Z,7.93
2022-08-03T10:23:10.158Z,12.00
2022-08-03T10:25:40.719Z,9.77
2022-08-03T10:28:12.623Z,10.07
2022-08-03T10:30:45.360Z,11.90
2022-08-03T10:33:51.982Z,15.57
2022-08-03T10:36:08.556Z,11.50
2022-08-03T10:38:42.230Z,10.60
2022-08-03T10:41:11.790Z,10.63
2022-08-03T10:43:49.203Z,9.60
2022-08-03T10:46:20.767Z,12.33
2022-08-03T10:48:52.582Z,8.03
2022-08-03T10:51:21.686Z,10.20
2022-08-03T10:53:54.964Z,9.03
2022-08-03T10:57:14.329Z,11.27
2022-08-03T11:00:03.816Z,14.43
2022-08-03T11:03:03.768Z,13.23
2022-08-03T11:05:37.420Z,13.90
2022-08-03T11:08:30.286Z,10.60
2022-08-03T11:11:02.299Z,16.33
2022-08-03T11:13:34.170Z,14.63
2022-08-03T11:16:21.834Z,11.37
2022-08-03T11:18:58.777Z,12.70
2022-08-03T11:21:57.387Z,14.93
2022-08-03T11:24:59.636Z,14.57
2022-08-03T11:27:30.846Z,15.57
2022-08-03T11:30:02.184Z,15.77
2022-08-03T11:33:00.343Z,16.57
2022-08-03T11:35:31.217Z,15.33
2022-08-03T11:38:08.382Z,14.00
2022-08-03T11:40:45.368Z,12.30
2022-08-03T11:43:48.702Z,10.93
2022-08-03T11:46:29.517Z,13.13
2022-08-03T11:49:09.868Z,11.03
2022-08-03T11:51:40.243Z,12.63
2022-08-03T11:54:09.092Z,14.40
2022-08-03T11:56:48.162Z,14.37
2022-08-03T11:59:21.551Z,13.43
2022-08-03T12:01:52.386Z,15.63
2022-08-03T12:04:20.714Z,10.00
2022-08-03T12:07:01.464Z,15.30
2022-08-03T12:09:29.609Z,15.27
2022-08-03T12:12:00.273Z,14.20
2022-08-03T12:14:49.326Z,15.00
2022-08-03T12:17:20.360Z,14.80
2022-08-03T12:19:49.121Z,14.20
2022-08-03T12:22:17.970Z,15.33
2022-08-03T12:24:47.425Z,18.53
2022-08-03T12:27:25.652Z,15.00
2022-08-03T12:29:57.276Z,10.93
2022-08-03T12:32:29.972Z,17.10
2022-08-03T12:35:01.525Z,16.20
2022-08-03T12:37:30.689Z,12.23
2022-08-03T12:40:09.351Z,14.93
2022-08-03T12:42:39.656Z,11.63
2022-08-03T12:45:20.209Z,15.07
2022-08-03T12:47:54.805Z,13.37
2022-08-03T12:50:31.470Z,12.43
2022-08-03T12:53:01.185Z,15.03
2022-08-03T12:55:56.537Z,14.77
2022-08-03T12:58:34.562Z,10.80
2022-08-03T13:01:04.869Z,10.50
2022-08-03T13:03:49.832Z,14.40
2022-08-03T13:06:20.454Z,7.77
2022-08-03T13:08:49.354Z,15.20
2022-08-03T13:11:22.448Z,15.40
2022-08-03T13:13:51.252Z,14.67
2022-08-03T13:16:19.607Z,10.90
2022-08-03T13:18:52.288Z,14.40
2022-08-03T13:21:22.002Z,13.27
2022-08-03T13:23:52.383Z,18.70
2022-08-03T13:26:20.386Z,15.73
2022-08-03T13:28:51.021Z,11.60
2022-08-03T13:31:19.289Z,13.63
2022-08-03T13:33:49.485Z,10.53
2022-08-03T13:36:17.825Z,13.83
2022-08-03T13:38:46.063Z,15.00
2022-08-03T13:41:18.820Z,11.83
2022-08-03T13:44:26.240Z,9.20
2022-08-03T13:46:48.324Z,11.57
2022-08-03T13:49:17.972Z,13.63
2022-08-03T13:51:46.058Z,14.97
2022-08-03T13:54:14.361Z,12.77
2022-08-03T13:56:46.611Z,14.57
2022-08-03T13:59:14.938Z,10.37
2022-08-03T14:01:55.089Z,16.47
2022-08-03T14:04:25.287Z,13.30
2022-08-03T14:06:53.634Z,10.83
2022-08-03T14:09:21.793Z,13.37
2022-08-03T14:12:08.416Z,12.87
2022-08-03T14:14:37.512Z,10.13
2022-08-03T14:17:05.714Z,12.27
2022-08-03T14:19:53.046Z,12.40
2022-08-03T14:22:22.227Z,11.10
2022-08-03T14:24:50.504Z,13.83
2022-08-03T14:27:19.958Z,13.77
2022-08-03T14:29:48.309Z,11.60
2022-08-03T14:32:16.754Z,16.93
2022-08-03T14:34:46.131Z,9.27
2022-08-03T14:37:14.552Z,14.00
2022-08-03T14:40:00.020Z,13.97
2022-08-03T14:42:28.890Z,12.37
2022-08-03T14:45:01.782Z,9.10
2022-08-03T14:47:33.357Z,10.27
2022-08-03T14:50:37.473Z,9.53
2022-08-03T14:53:10.124Z,9.57
2022-08-03T14:55:49.302Z,14.90
2022-08-03T14:58:21.193Z,11.47
2022-08-03T15:00:51.108Z,14.63
2022-08-03T15:03:23.721Z,13.10
2022-08-03T15:05:54.063Z,12.77
2022-08-03T15:08:22.666Z,14.17
2022-08-03T15:10:51.531Z,13.23
2022-08-03T15:13:20.814Z,10.70
2022-08-03T15:15:49.651Z,17.67
2022-08-03T15:18:17.785Z,12.30
2022-08-03T15:20:47.065Z,11.27
2022-08-03T15:23:17.150Z,11.83
2022-08-03T15:26:03.686Z,11.23
2022-08-03T15:28:34.896Z,13.63
2022-08-03T15:31:06.727Z,14.00
2022-08-03T15:33:35.594Z,13.20
2022-08-03T15:36:04.279Z,12.47
2022-08-03T15:38:33.836Z,11.37
2022-08-03T15:41:02.177Z,13.73
2022-08-03T15:43:30.302Z,10.77
2022-08-03T15:46:27.690Z,11.50
2022-08-03T15:48:47.375Z,13.20
2022-08-03T15:51:15.444Z,12.13
2022-08-03T15:53:44.882Z,19.77
2022-08-03T15:56:16.821Z,13.50
2022-08-03T15:59:03.689Z,8.90
2022-08-03T16:01:35.787Z,8.90
2022-08-03T16:04:04.662Z,14.30
2022-08-03T16:06:36.091Z,14.13
2022-08-03T16:09:22.810Z,14.67
2022-08-03T16:11:52.517Z,14.63
2022-08-03T16:14:32.038Z,270.07
2022-08-03T16:17:04.141Z,418.47
2022-08-03T16:19:32.746Z,177.07
2022-08-03T16:22:03.953Z,26.27
2022-08-03T16:24:34.255Z,372.33
2022-08-03T16:27:06.099Z,221.13
2022-08-03T16:29:46.544Z,642.47
2022-08-03T16:32:14.736Z,505.07
2022-08-03T16:34:43.143Z,47.77
2022-08-03T16:37:37.190Z,20.10
2022-08-03T16:40:01.551Z,9.77
2022-08-03T16:42:29.871Z,19.70
2022-08-03T16:44:58.115Z,21.23
2022-08-03T16:47:26.639Z,18.20
2022-08-03T16:49:56.515Z,16.03
2022-08-03T16:52:26.095Z,23.33
2022-08-03T16:54:55.073Z,13.93
2022-08-03T16:57:31.824Z,14.67
2022-08-03T17:00:34.135Z,16.73
2022-08-03T17:03:18.971Z,12.37
2022-08-03T17:05:50.198Z,8.50
2022-08-03T17:08:26.757Z,13.40
2022-08-03T17:10:56.068Z,8.90
2022-08-03T17:13:38.740Z,12.47
2022-08-03T17:16:09.949Z,8.83
2022-08-03T17:18:42.308Z,9.47
2022-08-03T17:21:18.634Z,12.93
2022-08-03T17:23:56.197Z,9.57
2022-08-03T17:26:30.664Z,12.37
2022-08-03T17:29:11.248Z,11.67
2022-08-03T17:31:48.832Z,7.40
2022-08-03T17:34:18.809Z,13.93
2022-08-03T17:37:05.867Z,6.50
2022-08-03T17:42:30.520Z,12.63
2022-08-03T17:45:15.574Z,9.27
2022-08-03T17:47:44.267Z,9.63
2022-08-03T17:50:25.302Z,11.33
2022-08-03T17:53:07.061Z,8.47
2022-08-03T17:55:57.533Z,9.57
2022-08-03T17:58:41.319Z,12.63
2022-08-03T18:04:30.235Z,11.73
2022-08-03T18:07:11.335Z,12.90
2022-08-03T18:10:03.730Z,9.40
2022-08-03T18:12:41.646Z,11.27
2022-08-03T18:15:21.429Z,13.10
2022-08-03T18:18:02.014Z,11.17
2022-08-03T18:20:41.038Z,12.47
2022-08-03T18:23:25.538Z,10.40
2022-08-03T18:26:01.788Z,9.63
2022-08-03T18:28:32.093Z,12.40
2022-08-03T18:31:05.601Z,10.80
2022-08-03T18:34:19.464Z,10.60
2022-08-03T18:36:29.991Z,11.43
2022-08-03T18:39:00.433Z,11.47
2022-08-03T18:41:33.292Z,11.50
2022-08-03T18:44:06.687Z,10.87
2022-08-03T18:47:15.818Z,12.63
2022-08-03T18:49:58.623Z,7.57
2022-08-03T18:52:32.349Z,8.43
2022-08-03T18:55:20.619Z,8.37
2022-08-03T18:57:59.841Z,9.50
2022-08-03T19:00:54.257Z,7.13
2022-08-03T19:03:25.536Z,7.27
2022-08-03T19:06:20.622Z,5.30
2022-08-03T19:08:51.537Z,13.40
2022-08-03T19:11:28.163Z,7.97
2022-08-03T19:14:00.462Z,8.67
2022-08-03T19:16:35.985Z,7.33
2022-08-03T19:19:10.650Z,9.17
2022-08-03T19:21:46.181Z,9.10
2022-08-03T19:24:23.383Z,8.90
2022-08-03T19:26:56.118Z,13.80
2022-08-03T19:29:25.290Z,6.50
2022-08-03T19:32:16.576Z,8.70
2022-08-03T19:34:46.663Z,8.53
2022-08-03T19:37:16.411Z,7.87
2022-08-03T19:39:45.356Z,10.00
2022-08-03T19:42:31.104Z,6.77
2022-08-03T19:45:11.360Z,8.07
2022-08-03T19:47:52.628Z,9.43
2022-08-03T19:50:21.865Z,11.87
2022-08-03T19:52:52.661Z,10.03
2022-08-03T19:55:24.250Z,9.97
2022-08-03T19:57:57.264Z,9.70
2022-08-03T20:00:26.490Z,8.57
2022-08-03T20:02:55.316Z,6.93
2022-08-03T20:05:23.765Z,10.73
2022-08-03T20:07:54.190Z,8.43
2022-08-03T20:10:22.981Z,8.87
2022-08-03T20:12:52.279Z,12.77
2022-08-03T20:15:22.372Z,11.60
2022-08-03T20:18:03.460Z,12.10
2022-08-03T20:20:39.180Z,12.87
2022-08-03T20:23:19.601Z,12.43
2022-08-03T20:25:57.242Z,11.60
2022-08-03T20:28:32.469Z,13.10
2022-08-03T20:31:01.906Z,14.40
2022-08-03T20:33:46.383Z,14.00
2022-08-03T20:36:18.456Z,14.33
2022-08-03T20:38:50.918Z,14.40
2022-08-03T20:41:20.803Z,13.70
2022-08-03T20:43:49.758Z,14.73
2022-08-03T20:46:32.681Z,17.03
2022-08-03T20:49:09.758Z,13.77
2022-08-03T20:51:49.497Z,12.90
2022-08-03T20:54:30.505Z,14.93
2022-08-03T20:57:00.278Z,14.77
2022-08-03T20:59:38.471Z,15.57
2022-08-03T21:02:19.639Z,15.03
2022-08-03T21:04:57.681Z,15.93
2022-08-03T21:08:04.203Z,18.03
2022-08-03T21:10:19.923Z,15.73
2022-08-03T21:12:56.257Z,12.33
2022-08-03T21:13:14.350Z,21.47
2022-08-03T21:16:03.248Z,13.23
2022-08-03T21:18:38.538Z,12.27
2022-08-03T21:21:11.268Z,14.37
2022-08-03T21:23:48.326Z,11.23
2022-08-03T21:26:20.672Z,10.93
2022-08-03T21:28:49.819Z,13.40
2022-08-03T21:31:24.526Z,15.80
2022-08-03T21:33:55.772Z,13.73
2022-08-03T21:36:24.333Z,14.77
2022-08-03T21:38:56.487Z,14.83
2022-08-03T21:41:27.864Z,10.87
2022-08-03T21:43:56.210Z,12.30
2022-08-03T21:46:25.060Z,17.90
2022-08-03T21:48:56.443Z,12.67
2022-08-03T21:51:45.335Z,8.73
2022-08-03T21:54:14.771Z,7.50
2022-08-03T21:56:46.627Z,9.23
2022-08-03T21:59:19.143Z,10.83
2022-08-03T22:01:51.480Z,8.30
2022-08-03T22:04:50.801Z,11.53
2022-08-03T22:07:13.116Z,11.17
2022-08-03T22:09:51.452Z,13.67
2022-08-03T22:12:23.813Z,13.87
2022-08-03T22:15:00.507Z,11.70
2022-08-03T22:17:55.263Z,11.27
2022-08-03T22:20:21.495Z,10.20
2022-08-03T22:22:55.861Z,13.30
2022-08-03T22:25:30.077Z,11.70
2022-08-03T22:28:01.754Z,15.43
2022-08-03T22:30:31.811Z,14.50
2022-08-03T22:33:01.214Z,10.97
2022-08-03T22:35:29.278Z,10.37
2022-08-03T22:38:00.023Z,11.97
2022-08-03T22:40:28.992Z,12.13
2022-08-03T22:43:00.255Z,15.20
2022-08-03T22:46:06.039Z,9.83
2022-08-03T22:48:19.447Z,12.83
2022-08-03T22:50:48.557Z,13.00
2022-08-03T22:53:19.249Z,11.87
2022-08-03T22:55:49.507Z,10.10
2022-08-03T22:58:20.980Z,12.47
2022-08-03T23:00:54.601Z,11.07
2022-08-03T23:03:26.026Z,12.73
2022-08-03T23:06:17.502Z,10.70
2022-08-03T23:08:48.162Z,9.13
2022-08-03T23:11:19.018Z,8.70
2022-08-03T23:13:53.567Z,11.83
2022-08-03T23:16:28.543Z,11.20
2022-08-03T23:18:58.752Z,10.50
2022-08-03T23:21:51.256Z,9.57
2022-08-03T23:24:29.607Z,9.80
2022-08-03T23:26:59.069Z,8.17
2022-08-03T23:29:31.640Z,11.50
2022-08-03T23:32:00.562Z,9.40
2022-08-03T23:34:46.956Z,15.33
2022-08-03T23:37:16.143Z,13.30
2022-08-03T23:39:46.820Z,12.77
2022-08-03T23:42:18.453Z,9.60
2022-08-03T23:44:48.220Z,13.63
2022-08-03T23:47:16.338Z,13.20
2022-08-03T23:49:44.929Z,14.57
2022-08-03T23:52:21.841Z,11.27
2022-08-03T23:55:04.574Z,12.27
2022-08-03T23:57:40.786Z,11.97
